Time;durP1;ratioP1;P1;durP2;ratioP2;P2;SDS_P1;SDS_P2;PMS_P1;PMS_P2;Temp;Humidity;BMP_temperature;BMP_pressure;BME280_temperature;BME280_humidity;BME280_pressure;Samples;Min_cycle;Max_cycle;Signal;HPM_P1;HPM_P2
2023/12/18 00:00:38;;;;;;;26.23;13.57;;;7.60;99.90;;;;;;5019003;28;89676;-29
2023/12/18 00:03:04;;;;;;;20.52;12.52;;;7.60;99.90;;;;;;5017831;27;89148;-29
2023/12/18 00:05:30;;;;;;;27.15;12.90;;;7.60;99.90;;;;;;5018981;28;89667;-33
2023/12/18 00:07:55;;;;;;;21.77;12.32;;;7.60;99.90;;;;;;5019086;27;90458;-28
2023/12/18 00:10:21;;;;;;;19.58;12.15;;;7.60;99.90;;;;;;5018231;28;89683;-28
2023/12/18 00:12:46;;;;;;;20.17;12.65;;;7.60;99.90;;;;;;5018356;28;89414;-30
2023/12/18 00:15:12;;;;;;;22.00;13.43;;;7.60;99.90;;;;;;5017982;28;89878;-30
2023/12/18 00:17:38;;;;;;;18.73;11.82;;;7.60;99.90;;;;;;5018698;28;89356;-33
2023/12/18 00:20:04;;;;;;;20.98;11.80;;;7.60;99.90;;;;;;5018512;28;89752;-29
2023/12/18 00:22:29;;;;;;;36.20;14.70;;;7.60;99.90;;;;;;5018308;27;89678;-30
2023/12/18 00:24:55;;;;;;;19.23;10.55;;;7.50;99.90;;;;;;5018911;28;88405;-32
2023/12/18 00:27:21;;;;;;;23.13;14.10;;;7.50;99.90;;;;;;5017850;28;89883;-31
2023/12/18 00:29:46;;;;;;;23.60;12.10;;;7.60;99.90;;;;;;5017113;28;90510;-32
2023/12/18 00:32:12;;;;;;;16.50;10.82;;;7.50;99.90;;;;;;5018341;28;89565;-30
2023/12/18 00:34:40;;;;;;;22.48;12.75;;;7.50;99.90;;;;;;5018407;28;88874;-31
2023/12/18 00:37:06;;;;;;;20.95;12.82;;;7.50;99.90;;;;;;5017864;28;90207;-30
2023/12/18 00:39:32;;;;;;;25.63;13.10;;;7.50;99.90;;;;;;5017695;27;90560;-31
2023/12/18 00:41:57;;;;;;;25.73;13.93;;;7.50;99.90;;;;;;5017906;27;90255;-30
2023/12/18 00:44:23;;;;;;;24.85;12.60;;;7.50;99.90;;;;;;5018811;27;90075;-30
2023/12/18 00:46:49;;;;;;;21.83;13.32;;;7.50;99.90;;;;;;5017985;27;89357;-30
2023/12/18 00:49:15;;;;;;;17.08;12.70;;;7.50;99.90;;;;;;5017979;27;89308;-29
2023/12/18 00:51:40;;;;;;;22.75;13.88;;;7.50;99.90;;;;;;5017237;28;89625;-31
2023/12/18 00:54:06;;;;;;;24.50;13.82;;;7.50;99.90;;;;;;5017523;28;89911;-30
2023/12/18 00:56:32;;;;;;;20.23;11.63;;;7.50;99.90;;;;;;5018079;27;90215;-28
2023/12/18 00:58:57;;;;;;;20.58;12.82;;;7.50;99.90;;;;;;5008023;28;89359;-30
2023/12/18 01:01:23;;;;;;;23.27;14.00;;;7.50;99.90;;;;;;5022103;28;89293;-31
2023/12/18 01:03:49;;;;;;;19.13;11.93;;;7.50;99.90;;;;;;5020918;27;89687;-30
2023/12/18 01:06:14;;;;;;;20.05;12.25;;;7.50;99.90;;;;;;5021832;27;90511;-31
2023/12/18 01:08:40;;;;;;;26.77;13.82;;;7.50;99.90;;;;;;5021681;28;91797;-29
2023/12/18 01:11:06;;;;;;;20.70;12.48;;;7.50;99.90;;;;;;5021029;28;89571;-31
2023/12/18 01:13:31;;;;;;;27.48;13.75;;;7.40;99.90;;;;;;5021974;28;88405;-29
2023/12/18 01:15:58;;;;;;;20.13;11.70;;;7.50;99.90;;;;;;5020759;27;90267;-30
2023/12/18 01:18:24;;;;;;;28.05;11.52;;;7.50;99.90;;;;;;5010111;28;89460;-28
2023/12/18 01:20:50;;;;;;;25.67;13.25;;;7.50;99.90;;;;;;5021680;28;88594;-30
2023/12/18 01:23:16;;;;;;;18.33;11.65;;;7.60;99.90;;;;;;5021752;28;90295;-30
2023/12/18 01:25:41;;;;;;;22.13;11.30;;;7.50;99.90;;;;;;5020745;27;88687;-28
2023/12/18 01:28:07;;;;;;;24.85;12.50;;;7.50;99.90;;;;;;5020079;27;90690;-29
2023/12/18 01:30:33;;;;;;;24.25;13.27;;;7.50;99.90;;;;;;5021702;28;90491;-31
2023/12/18 01:32:58;;;;;;;20.42;12.27;;;7.60;99.90;;;;;;5020646;28;88261;-31
2023/12/18 01:35:24;;;;;;;22.38;14.35;;;7.60;99.90;;;;;;5020872;28;90196;-31
2023/12/18 01:37:49;;;;;;;20.58;13.00;;;7.60;99.90;;;;;;5020881;27;90041;-30
2023/12/18 01:40:15;;;;;;;16.23;11.63;;;7.50;99.90;;;;;;5020663;28;89811;-32
2023/12/18 01:42:44;;;;;;;28.27;13.38;;;7.50;99.90;;;;;;5021172;28;88984;-32
2023/12/18 01:45:10;;;;;;;32.83;12.85;;;7.50;99.90;;;;;;5019423;28;91097;-30
2023/12/18 01:47:36;;;;;;;24.08;13.30;;;7.50;99.90;;;;;;5020447;28;89995;-31
2023/12/18 01:50:03;;;;;;;22.23;12.10;;;7.50;99.90;;;;;;5021070;28;89958;-31
2023/12/18 01:52:29;;;;;;;17.10;11.50;;;7.50;99.90;;;;;;5020976;28;89747;-30
2023/12/18 01:54:56;;;;;;;19.55;13.63;;;7.50;99.90;;;;;;5020157;28;90392;-32
2023/12/18 01:57:23;;;;;;;23.65;14.00;;;7.50;99.90;;;;;;5020888;27;89797;-33
2023/12/18 01:59:50;;;;;;;22.27;12.43;;;7.50;99.90;;;;;;5020935;27;90079;-29
2023/12/18 02:02:16;;;;;;;28.85;13.82;;;7.50;99.90;;;;;;5020630;28;88337;-30
2023/12/18 02:04:42;;;;;;;23.48;12.75;;;7.50;99.90;;;;;;5020309;28;90152;-32
2023/12/18 02:07:09;;;;;;;20.58;13.00;;;7.50;99.90;;;;;;5020975;27;89384;-28
2023/12/18 02:09:35;;;;;;;19.20;11.48;;;7.50;99.90;;;;;;5019394;27;89533;-29
2023/12/18 02:12:03;;;;;;;20.50;12.88;;;7.50;99.90;;;;;;5020994;27;90111;-27
2023/12/18 02:14:28;;;;;;;20.90;14.80;;;7.50;99.90;;;;;;5020680;28;90439;-30
2023/12/18 02:16:54;;;;;;;24.58;12.43;;;7.50;99.90;;;;;;5019853;28;90757;-31
2023/12/18 02:19:28;;;;;;;20.70;13.00;;;7.50;99.90;;;;;;5020652;28;89382;-31
2023/12/18 02:21:54;;;;;;;24.02;13.27;;;7.50;99.90;;;;;;5019935;28;87720;-31
2023/12/18 02:24:21;;;;;;;32.40;14.57;;;7.50;99.90;;;;;;5020336;27;88756;-32
2023/12/18 02:26:47;;;;;;;23.20;13.07;;;7.50;99.90;;;;;;5020898;28;89656;-28
2023/12/18 02:29:13;;;;;;;23.48;13.75;;;7.50;99.90;;;;;;5019512;28;89327;-29
2023/12/18 02:31:39;;;;;;;21.42;12.63;;;7.40;99.90;;;;;;5021094;27;88043;-30
2023/12/18 02:34:05;;;;;;;26.98;14.23;;;7.50;99.90;;;;;;5019532;27;90253;-28
2023/12/18 02:36:30;;;;;;;28.67;12.40;;;7.40;99.90;;;;;;5019990;28;90713;-33
2023/12/18 02:38:56;;;;;;;17.98;12.43;;;7.40;99.90;;;;;;5017863;28;90495;-28
2023/12/18 02:41:22;;;;;;;22.80;14.60;;;7.40;99.90;;;;;;5020098;28;89687;-29
2023/12/18 02:43:47;;;;;;;23.80;11.48;;;7.50;99.90;;;;;;5020367;27;90165;-28
2023/12/18 02:46:13;;;;;;;28.05;14.07;;;7.40;99.90;;;;;;5019456;28;89653;-29
2023/12/18 02:48:39;;;;;;;20.63;12.30;;;7.40;99.90;;;;;;5019551;28;89672;-30
2023/12/18 02:51:05;;;;;;;22.55;14.93;;;7.40;99.90;;;;;;5020092;28;89412;-29
2023/12/18 02:53:30;;;;;;;23.20;14.38;;;7.40;99.90;;;;;;5019784;27;90395;-29
2023/12/18 02:55:56;;;;;;;22.50;14.15;;;7.40;99.90;;;;;;5020064;28;89743;-30
2023/12/18 02:58:22;;;;;;;23.95;14.85;;;7.40;99.90;;;;;;5018890;27;89870;-31
2023/12/18 03:00:49;;;;;;;22.52;13.90;;;7.40;99.90;;;;;;5019957;27;89503;-30
2023/12/18 03:03:14;;;;;;;29.70;15.23;;;7.40;99.90;;;;;;5019491;27;90256;-28
2023/12/18 03:05:40;;;;;;;22.25;14.82;;;7.40;99.90;;;;;;5019521;27;90112;-29
2023/12/18 03:08:06;;;;;;;26.77;13.95;;;7.40;99.90;;;;;;5019447;28;90543;-32
2023/12/18 03:10:31;;;;;;;39.22;13.50;;;7.40;99.90;;;;;;5018291;28;88788;-27
2023/12/18 03:12:57;;;;;;;20.67;12.95;;;7.40;99.90;;;;;;5018936;27;90362;-32
2023/12/18 03:15:23;;;;;;;25.10;14.05;;;7.40;99.90;;;;;;5019521;27;89495;-29
2023/12/18 03:17:48;;;;;;;23.77;14.30;;;7.40;99.90;;;;;;5018855;28;90182;-30
2023/12/18 03:20:14;;;;;;;22.75;14.38;;;7.40;99.90;;;;;;5018563;27;89449;-29
2023/12/18 03:22:39;;;;;;;23.92;12.52;;;7.40;99.90;;;;;;5019207;28;90133;-28
2023/12/18 03:25:07;;;;;;;28.17;16.15;;;7.40;99.90;;;;;;5019940;28;89087;-31
2023/12/18 03:27:33;;;;;;;45.75;25.52;;;7.40;99.90;;;;;;5019327;27;90702;-31
2023/12/18 03:29:58;;;;;;;26.15;14.38;;;7.40;99.90;;;;;;5018344;28;89381;-30
2023/12/18 03:32:24;;;;;;;25.33;14.68;;;7.40;99.90;;;;;;5020034;28;89938;-28
2023/12/18 03:34:50;;;;;;;28.23;15.52;;;7.40;99.90;;;;;;5018777;28;89725;-32
2023/12/18 03:37:15;;;;;;;22.02;13.70;;;7.40;99.90;;;;;;5018759;28;89605;-28
2023/12/18 03:39:41;;;;;;;24.08;14.10;;;7.40;99.90;;;;;;5019322;28;89589;-30
2023/12/18 03:42:06;;;;;;;23.67;15.82;;;7.40;99.90;;;;;;5019384;27;89362;-30
2023/12/18 03:44:32;;;;;;;25.92;16.10;;;7.40;99.90;;;;;;5019080;28;89807;-28
2023/12/18 03:46:58;;;;;;;28.55;15.98;;;7.40;99.90;;;;;;5017048;28;89885;-30
2023/12/18 03:49:23;;;;;;;22.42;13.68;;;7.40;99.90;;;;;;5020058;27;89909;-29
2023/12/18 03:51:49;;;;;;;22.27;14.25;;;7.40;99.90;;;;;;5018923;28;90086;-31
2023/12/18 03:54:15;;;;;;;22.27;14.98;;;7.40;99.90;;;;;;5018053;27;90209;-30
2023/12/18 03:56:41;;;;;;;24.38;13.52;;;7.40;99.90;;;;;;5018645;28;92265;-30
2023/12/18 03:59:07;;;;;;;26.30;15.18;;;7.50;99.90;;;;;;5018745;28;89134;-30
2023/12/18 04:01:34;;;;;;;30.50;18.85;;;7.40;99.90;;;;;;5019084;28;90159;-30
2023/12/18 04:04:00;;;;;;;31.50;15.52;;;7.40;99.90;;;;;;5018262;27;89370;-31
2023/12/18 04:06:25;;;;;;;31.23;15.23;;;7.50;99.90;;;;;;5018677;27;89177;-30
2023/12/18 04:08:51;;;;;;;20.42;12.68;;;7.50;99.90;;;;;;5019399;28;90127;-27
2023/12/18 04:11:17;;;;;;;20.42;15.13;;;7.50;99.90;;;;;;5018629;28;89868;-30
2023/12/18 04:13:43;;;;;;;26.58;15.88;;;7.50;99.90;;;;;;5019416;27;89141;-28
2023/12/18 04:16:09;;;;;;;23.35;15.13;;;7.50;99.90;;;;;;5017630;28;89733;-28
2023/12/18 04:18:35;;;;;;;16.17;12.55;;;7.50;99.90;;;;;;5017833;28;88997;-28
2023/12/18 04:21:01;;;;;;;32.80;14.43;;;7.50;99.90;;;;;;5019019;27;90180;-29
2023/12/18 04:23:27;;;;;;;15.60;12.20;;;7.50;99.90;;;;;;5018474;27;89697;-30
2023/12/18 04:25:52;;;;;;;22.52;15.25;;;7.50;99.90;;;;;;5018073;28;89610;-29
2023/12/18 04:28:18;;;;;;;19.63;13.57;;;7.50;99.90;;;;;;5018300;28;89824;-30
2023/12/18 04:30:43;;;;;;;21.63;13.82;;;7.50;99.90;;;;;;5018743;28;90171;-28
2023/12/18 04:33:09;;;;;;;28.13;13.60;;;7.50;99.90;;;;;;5018769;28;89885;-28
2023/12/18 04:35:35;;;;;;;30.08;16.70;;;7.50;99.90;;;;;;5018293;28;89676;-30
2023/12/18 04:38:01;;;;;;;25.45;14.55;;;7.50;99.90;;;;;;5017889;28;89588;-31
2023/12/18 04:40:27;;;;;;;23.25;13.60;;;7.50;99.90;;;;;;5017877;28;90181;-28
2023/12/18 04:42:54;;;;;;;20.08;12.90;;;7.50;99.90;;;;;;5018019;28;90607;-32
2023/12/18 04:45:19;;;;;;;40.17;15.30;;;7.50;99.90;;;;;;5019139;27;90386;-27
2023/12/18 04:47:46;;;;;;;22.35;12.50;;;7.50;99.90;;;;;;5018449;27;88501;-29
2023/12/18 04:50:12;;;;;;;22.55;12.68;;;7.50;99.90;;;;;;5017581;27;90108;-32
2023/12/18 04:52:38;;;;;;;16.95;13.52;;;7.60;99.90;;;;;;5018397;27;90033;-29
2023/12/18 04:55:05;;;;;;;18.05;10.93;;;7.60;99.90;;;;;;5017206;28;89069;-27
2023/12/18 04:57:31;;;;;;;21.05;14.82;;;7.60;99.90;;;;;;5018991;28;88275;-30
2023/12/18 04:59:57;;;;;;;22.77;13.68;;;7.60;99.90;;;;;;5017672;28;89120;-29
2023/12/18 05:02:22;;;;;;;22.65;13.02;;;7.60;99.90;;;;;;5018301;27;90290;-29
2023/12/18 05:04:48;;;;;;;19.00;12.75;;;7.60;99.90;;;;;;5013644;28;90326;-29
2023/12/18 05:07:14;;;;;;;17.50;12.25;;;7.60;99.90;;;;;;5014590;28;90118;-29
2023/12/18 05:09:39;;;;;;;21.05;12.05;;;7.60;99.90;;;;;;5018487;28;89226;-30
2023/12/18 05:12:05;;;;;;;25.48;13.40;;;7.60;99.90;;;;;;5017705;28;89090;-31
2023/12/18 05:14:31;;;;;;;22.75;13.00;;;7.60;99.90;;;;;;5017511;28;90073;-29
2023/12/18 05:16:56;;;;;;;24.58;14.13;;;7.60;99.90;;;;;;5018002;27;88461;-28
2023/12/18 05:19:23;;;;;;;16.88;13.20;;;7.60;99.90;;;;;;5017544;28;90046;-30
2023/12/18 05:21:48;;;;;;;21.48;11.73;;;7.60;99.90;;;;;;5018316;28;89389;-30
2023/12/18 05:24:14;;;;;;;25.00;12.88;;;7.60;99.90;;;;;;5016919;28;89449;-31
2023/12/18 05:26:40;;;;;;;32.50;14.43;;;7.70;99.90;;;;;;5018384;28;89319;-33
2023/12/18 05:29:05;;;;;;;20.33;11.93;;;7.70;99.90;;;;;;5016961;28;90932;-30
2023/12/18 05:31:31;;;;;;;24.45;12.02;;;7.70;99.90;;;;;;5017131;27;90244;-30
2023/12/18 05:33:57;;;;;;;33.00;14.40;;;7.60;99.90;;;;;;5017399;27;90569;-28
2023/12/18 05:36:23;;;;;;;18.52;12.15;;;7.60;99.90;;;;;;5011497;27;87841;-29
2023/12/18 05:38:48;;;;;;;21.33;12.52;;;7.60;99.90;;;;;;5017532;27;90483;-28
2023/12/18 05:41:14;;;;;;;18.63;12.82;;;7.60;99.90;;;;;;5016892;28;89663;-30
2023/12/18 05:43:40;;;;;;;20.27;12.60;;;7.60;99.90;;;;;;5017692;27;89929;-29
2023/12/18 05:46:09;;;;;;;21.42;13.30;;;7.60;99.90;;;;;;5021113;28;88230;-29
2023/12/18 05:48:34;;;;;;;21.27;14.05;;;7.50;99.90;;;;;;5021324;28;90858;-29
2023/12/18 05:51:00;;;;;;;26.98;14.48;;;7.50;99.90;;;;;;5020577;27;89329;-31
2023/12/18 05:53:25;;;;;;;17.77;12.25;;;7.50;99.90;;;;;;5021122;27;89289;-28
2023/12/18 05:55:51;;;;;;;20.02;15.13;;;7.50;99.90;;;;;;5020465;28;89064;-29
2023/12/18 05:58:17;;;;;;;24.73;14.40;;;7.50;99.90;;;;;;5020323;27;89641;-29
2023/12/18 06:00:42;;;;;;;30.25;15.43;;;7.50;99.90;;;;;;5020705;28;89981;-31
2023/12/18 06:03:08;;;;;;;22.67;13.43;;;7.50;99.90;;;;;;5019712;28;89782;-30
2023/12/18 06:05:33;;;;;;;22.38;13.43;;;7.50;99.90;;;;;;5020648;28;89405;-28
2023/12/18 06:07:59;;;;;;;22.20;11.95;;;7.50;99.90;;;;;;5019410;28;90457;-30
2023/12/18 06:10:25;;;;;;;22.27;11.98;;;7.50;99.90;;;;;;5020936;28;89303;-29
2023/12/18 06:12:51;;;;;;;22.35;13.90;;;7.50;99.90;;;;;;5020669;28;89369;-29
2023/12/18 06:15:17;;;;;;;24.38;13.88;;;7.50;99.90;;;;;;5020628;27;90222;-29
2023/12/18 06:17:42;;;;;;;23.75;13.15;;;7.50;99.90;;;;;;5019893;28;90186;-31
2023/12/18 06:20:08;;;;;;;26.30;13.80;;;7.50;99.90;;;;;;5019411;28;90695;-31
2023/12/18 06:22:34;;;;;;;25.42;13.15;;;7.50;99.90;;;;;;5020284;28;89216;-30
2023/12/18 06:25:02;;;;;;;25.70;13.48;;;7.50;99.90;;;;;;5020219;28;89520;-29
2023/12/18 06:27:28;;;;;;;18.70;12.65;;;7.50;99.90;;;;;;5019683;27;88653;-29
2023/12/18 06:29:54;;;;;;;17.42;12.65;;;7.50;99.90;;;;;;5020144;28;88933;-31
2023/12/18 06:32:19;;;;;;;23.48;11.82;;;7.50;99.90;;;;;;5019399;27;90006;-29
2023/12/18 06:34:45;;;;;;;18.70;13.27;;;7.50;99.90;;;;;;5020916;27;89581;-29
2023/12/18 06:37:10;;;;;;;17.70;12.98;;;7.50;99.90;;;;;;5019641;28;90104;-32
2023/12/18 06:39:36;;;;;;;16.83;13.40;;;7.50;99.90;;;;;;5020029;28;89998;-30
2023/12/18 06:42:02;;;;;;;22.58;12.45;;;7.50;99.90;;;;;;5019556;27;89599;-29
2023/12/18 06:44:27;;;;;;;21.73;14.43;;;7.50;99.90;;;;;;5019802;28;89113;-29
2023/12/18 06:46:53;;;;;;;19.33;12.57;;;7.50;99.90;;;;;;5019806;28;90251;-30
2023/12/18 06:49:19;;;;;;;22.08;13.35;;;7.50;99.90;;;;;;5019737;28;89793;-28
2023/12/18 06:51:44;;;;;;;23.15;13.25;;;7.50;99.90;;;;;;5019750;28;89863;-30
2023/12/18 06:54:10;;;;;;;27.05;15.20;;;7.50;99.90;;;;;;5019374;28;88486;-32
2023/12/18 06:56:37;;;;;;;22.58;12.93;;;7.50;99.90;;;;;;5019838;28;90250;-28
2023/12/18 06:59:03;;;;;;;21.25;13.15;;;7.50;99.90;;;;;;5020414;27;89618;-29
2023/12/18 07:01:28;;;;;;;22.83;14.20;;;7.50;99.90;;;;;;5019629;28;89253;-29
2023/12/18 07:03:54;;;;;;;20.45;12.52;;;7.50;99.90;;;;;;5019966;28;90251;-29
2023/12/18 07:06:20;;;;;;;19.27;13.82;;;7.50;99.90;;;;;;5019722;27;90286;-30
2023/12/18 07:08:46;;;;;;;22.83;13.65;;;7.50;99.90;;;;;;5018967;28;90579;-29
2023/12/18 07:11:12;;;;;;;28.27;13.38;;;7.50;99.90;;;;;;5019099;28;90416;-28
2023/12/18 07:13:38;;;;;;;20.52;14.80;;;7.50;99.90;;;;;;5019463;27;89325;-28
2023/12/18 07:16:05;;;;;;;20.98;14.82;;;7.50;99.90;;;;;;5018602;27;90522;-32
2023/12/18 07:18:30;;;;;;;27.10;13.05;;;7.40;99.90;;;;;;5018370;28;89529;-29
2023/12/18 07:20:56;;;;;;;18.95;13.10;;;7.50;99.90;;;;;;5019051;28;89099;-29
2023/12/18 07:23:21;;;;;;;23.67;12.85;;;7.50;99.90;;;;;;5012280;28;89130;-28
2023/12/18 07:25:47;;;;;;;23.83;12.48;;;7.50;99.90;;;;;;5018140;28;90283;-29
2023/12/18 07:28:13;;;;;;;22.70;14.48;;;7.40;99.90;;;;;;5019313;28;89418;-31
2023/12/18 07:30:39;;;;;;;21.80;13.00;;;7.50;99.90;;;;;;5019614;28;90233;-28
2023/12/18 07:33:05;;;;;;;19.67;13.40;;;7.50;99.90;;;;;;5018236;27;90288;-31
2023/12/18 07:35:30;;;;;;;22.02;15.68;;;7.50;99.90;;;;;;5018424;27;88864;-31
2023/12/18 07:37:56;;;;;;;18.73;14.25;;;7.50;99.90;;;;;;5053788;22;89547;-32
2023/12/18 07:40:22;;;;;;;21.17;14.70;;;7.50;99.90;;;;;;5018280;27;89681;-30
2023/12/18 07:42:47;;;;;;;22.92;14.88;;;7.50;99.90;;;;;;5026811;27;88042;-29
2023/12/18 07:45:13;;;;;;;21.15;14.32;;;7.50;99.90;;;;;;5021388;27;90311;-31
2023/12/18 07:47:40;;;;;;;26.80;13.82;;;7.50;99.90;;;;;;5030613;27;89597;-31
2023/12/18 07:50:07;;;;;;;34.47;15.25;;;7.50;99.90;;;;;;5029740;27;89422;-31
2023/12/18 07:52:33;;;;;;;20.70;13.02;;;7.50;99.90;;;;;;5026622;27;89198;-29
2023/12/18 07:55:01;;;;;;;28.73;13.25;;;7.50;99.90;;;;;;5034140;27;90014;-32
2023/12/18 07:57:26;;;;;;;26.52;14.60;;;7.50;99.90;;;;;;5018975;28;91314;-29
2023/12/18 07:59:54;;;;;;;18.70;12.45;;;7.50;99.90;;;;;;5029443;27;90618;-28
2023/12/18 08:02:19;;;;;;;25.45;15.02;;;7.50;99.90;;;;;;5026890;27;88194;-30
2023/12/18 08:04:45;;;;;;;24.63;14.27;;;7.50;99.90;;;;;;5014256;27;90297;-31
2023/12/18 08:07:10;;;;;;;28.17;15.95;;;7.60;99.90;;;;;;5018901;27;89046;-32
2023/12/18 08:09:36;;;;;;;23.42;14.65;;;7.60;99.90;;;;;;5018841;27;89914;-33
2023/12/18 08:12:02;;;;;;;36.03;16.88;;;7.50;99.90;;;;;;5017577;27;89273;-32
2023/12/18 08:14:27;;;;;;;29.25;14.95;;;7.60;99.90;;;;;;5006259;28;90166;-31
2023/12/18 08:16:53;;;;;;;25.67;13.65;;;7.60;99.90;;;;;;5020402;27;88264;-29
2023/12/18 08:19:19;;;;;;;20.38;13.32;;;7.60;99.90;;;;;;5012778;28;89641;-31
2023/12/18 08:21:44;;;;;;;22.38;13.38;;;7.60;99.90;;;;;;5018332;27;89350;-32
2023/12/18 08:24:10;;;;;;;22.67;14.15;;;7.60;99.90;;;;;;5005727;28;90311;-31
2023/12/18 08:26:36;;;;;;;25.75;14.75;;;7.60;99.90;;;;;;5015276;28;90312;-29
2023/12/18 08:29:02;;;;;;;26.15;15.43;;;7.70;99.90;;;;;;5028271;27;89134;-29
2023/12/18 08:31:28;;;;;;;23.05;15.93;;;7.70;99.90;;;;;;5011356;27;87596;-31
2023/12/18 08:33:53;;;;;;;28.63;17.60;;;7.70;99.90;;;;;;5008983;27;89756;-30
2023/12/18 08:36:19;;;;;;;22.30;14.73;;;7.70;99.90;;;;;;5010622;28;89525;-32
2023/12/18 08:38:44;;;;;;;25.63;14.50;;;7.70;99.90;;;;;;5015676;27;90255;-30
2023/12/18 08:41:10;;;;;;;26.95;16.33;;;7.70;99.90;;;;;;5027787;27;89824;-33
2023/12/18 08:43:36;;;;;;;25.17;14.48;;;7.70;99.90;;;;;;5029681;27;89317;-30
2023/12/18 08:46:01;;;;;;;32.65;17.45;;;7.70;99.90;;;;;;5001634;27;90527;-31
2023/12/18 08:48:27;;;;;;;21.55;13.57;;;7.70;99.90;;;;;;5015430;28;91576;-29
2023/12/18 08:50:52;;;;;;;21.17;14.23;;;7.70;99.90;;;;;;5016210;28;89365;-30
2023/12/18 08:53:18;;;;;;;23.73;16.00;;;7.70;99.90;;;;;;5016660;27;90385;-30
2023/12/18 08:55:43;;;;;;;21.98;14.48;;;7.70;99.90;;;;;;5014911;28;89606;-31
2023/12/18 08:58:09;;;;;;;24.35;12.70;;;7.70;99.90;;;;;;5015953;27;89483;-29
2023/12/18 09:00:36;;;;;;;28.30;16.63;;;7.80;99.90;;;;;;5015997;27;88598;-30
2023/12/18 09:03:02;;;;;;;27.13;14.00;;;7.80;99.90;;;;;;5014686;27;90444;-30
2023/12/18 09:05:29;;;;;;;22.80;14.68;;;7.80;99.90;;;;;;5016667;27;90397;-33
2023/12/18 09:07:54;;;;;;;18.52;12.05;;;7.80;99.90;;;;;;5015566;28;89797;-31
2023/12/18 09:10:23;;;;;;;31.63;16.83;;;7.80;99.90;;;;;;5014358;27;89863;-28
2023/12/18 09:12:53;;;;;;;26.65;15.95;;;7.80;99.90;;;;;;5015756;27;89836;-32
2023/12/18 09:15:19;;;;;;;24.08;15.15;;;7.80;99.90;;;;;;5015268;27;89717;-30
2023/12/18 09:17:45;;;;;;;20.90;13.95;;;7.90;99.90;;;;;;5015908;27;90517;-29
2023/12/18 09:20:11;;;;;;;29.30;14.38;;;7.90;99.90;;;;;;5018089;27;89836;-30
2023/12/18 09:22:37;;;;;;;28.23;14.23;;;7.80;99.90;;;;;;5019624;27;90271;-29
2023/12/18 09:25:03;;;;;;;32.28;15.23;;;7.90;99.90;;;;;;5018849;27;89481;-30
2023/12/18 09:27:29;;;;;;;20.50;12.70;;;7.90;99.90;;;;;;5020986;27;89629;-30
2023/12/18 09:29:55;;;;;;;26.48;14.02;;;7.90;99.90;;;;;;5032179;27;88817;-29
2023/12/18 09:32:21;;;;;;;26.08;15.65;;;7.90;99.90;;;;;;5030667;27;90530;-29
2023/12/18 09:34:47;;;;;;;24.70;14.43;;;7.90;99.90;;;;;;5019634;27;90619;-32
2023/12/18 09:37:13;;;;;;;31.17;15.75;;;7.90;99.90;;;;;;5021031;27;90086;-30
2023/12/18 09:39:41;;;;;;;28.27;15.32;;;7.90;99.90;;;;;;5029387;27;89659;-33
2023/12/18 09:42:10;;;;;;;24.17;16.17;;;7.90;99.90;;;;;;5021033;28;89892;-29
2023/12/18 09:44:36;;;;;;;23.38;16.50;;;7.90;99.90;;;;;;5021308;28;89181;-30
2023/12/18 09:47:02;;;;;;;29.30;15.23;;;7.90;99.90;;;;;;5025810;27;89719;-29
2023/12/18 09:49:28;;;;;;;27.65;14.77;;;7.90;99.90;;;;;;5021138;28;88423;-30
2023/12/18 09:52:00;;;;;;;27.80;16.58;;;7.90;99.90;;;;;;5023511;27;90354;-31
2023/12/18 09:54:27;;;;;;;24.40;15.00;;;7.90;99.90;;;;;;5023075;27;89626;-29
2023/12/18 09:56:55;;;;;;;27.00;15.63;;;7.90;99.90;;;;;;5023814;27;89436;-30
2023/12/18 09:59:21;;;;;;;22.85;18.10;;;7.90;99.90;;;;;;5027090;27;89733;-29
2023/12/18 10:01:46;;;;;;;26.83;17.05;;;7.90;99.90;;;;;;5025461;27;91274;-31
2023/12/18 10:04:12;;;;;;;28.80;17.40;;;7.90;99.90;;;;;;5025843;27;90441;-29
2023/12/18 10:06:39;;;;;;;38.58;16.23;;;7.90;99.90;;;;;;5024281;27;88975;-30
2023/12/18 10:09:13;;;;;;;24.33;15.30;;;7.90;99.90;;;;;;5026365;27;88620;-29
2023/12/18 10:11:40;;;;;;;31.10;18.38;;;7.90;99.90;;;;;;5025800;27;89847;-31
2023/12/18 10:14:06;;;;;;;24.08;16.08;;;7.90;99.90;;;;;;5020230;28;90846;-31
2023/12/18 10:16:32;;;;;;;31.10;17.38;;;7.90;99.90;;;;;;5020692;28;89595;-32
2023/12/18 10:18:58;;;;;;;27.45;17.50;;;7.90;99.90;;;;;;5025508;27;88171;-28
2023/12/18 10:21:24;;;;;;;27.98;16.00;;;8.00;99.90;;;;;;5029133;27;90324;-30
2023/12/18 10:23:52;;;;;;;29.40;16.13;;;8.00;99.90;;;;;;5026087;27;91276;-31
2023/12/18 10:26:18;;;;;;;28.63;16.80;;;8.00;99.90;;;;;;5029752;27;90677;-29
2023/12/18 10:28:45;;;;;;;29.55;19.25;;;8.00;99.90;;;;;;5032278;27;89264;-30
2023/12/18 10:31:11;;;;;;;38.53;20.45;;;8.00;99.90;;;;;;5021328;27;89393;-33
2023/12/18 10:33:37;;;;;;;33.03;17.48;;;8.10;99.90;;;;;;5019810;28;89949;-30
2023/12/18 10:36:06;;;;;;;31.98;16.08;;;8.10;99.90;;;;;;5019133;27;89943;-30
2023/12/18 10:38:36;;;;;;;29.15;16.58;;;8.10;99.90;;;;;;5019751;27;89406;-29
2023/12/18 10:41:03;;;;;;;34.25;18.80;;;8.10;99.90;;;;;;5020138;27;91035;-28
2023/12/18 10:43:32;;;;;;;32.63;17.63;;;8.10;99.90;;;;;;5020555;27;90049;-32
2023/12/18 10:45:59;;;;;;;21.77;14.50;;;8.10;99.90;;;;;;5019887;27;89734;-32
2023/12/18 10:48:25;;;;;;;30.17;16.58;;;8.10;99.90;;;;;;5020596;27;89272;-28
2023/12/18 10:50:57;;;;;;;24.35;17.10;;;8.10;99.90;;;;;;5019753;27;90165;-31
2023/12/18 10:53:24;;;;;;;27.13;16.15;;;8.10;99.90;;;;;;5019722;27;90429;-30
2023/12/18 10:55:50;;;;;;;31.83;17.58;;;8.10;99.90;;;;;;5019642;27;89448;-32
2023/12/18 10:58:19;;;;;;;25.08;17.17;;;8.10;99.90;;;;;;5020043;27;89178;-29
2023/12/18 11:00:45;;;;;;;30.92;18.80;;;8.10;99.90;;;;;;5020365;27;90230;-28
2023/12/18 11:03:13;;;;;;;27.35;18.00;;;8.10;99.90;;;;;;5020540;27;89932;-31
2023/12/18 11:05:40;;;;;;;34.00;17.27;;;8.10;99.90;;;;;;5019915;28;88818;-31
2023/12/18 11:08:06;;;;;;;24.58;16.77;;;8.10;99.90;;;;;;5020811;27;88409;-28
2023/12/18 11:10:32;;;;;;;33.03;17.70;;;8.10;99.90;;;;;;5020389;28;90296;-28
2023/12/18 11:13:10;;;;;;;31.30;17.70;;;8.10;99.90;;;;;;5019167;27;91104;-30
2023/12/18 11:15:59;;;;;;;27.52;16.33;;;8.20;99.90;;;;;;5018926;27;92268;-32
2023/12/18 11:19:01;;;;;;;27.67;18.33;;;8.20;99.90;;;;;;5018651;28;89983;-32
2023/12/18 11:21:27;;;;;;;30.23;18.92;;;8.20;99.90;;;;;;5021263;27;90104;-32
2023/12/18 11:23:52;;;;;;;29.50;16.67;;;8.20;99.90;;;;;;5026585;27;90042;-32
2023/12/18 11:26:19;;;;;;;39.13;18.17;;;8.20;99.90;;;;;;5026857;27;89849;-28
2023/12/18 11:28:48;;;;;;;25.52;16.55;;;8.20;99.90;;;;;;5025053;27;88435;-29
2023/12/18 11:31:20;;;;;;;28.83;16.65;;;8.20;99.90;;;;;;5020260;27;89913;-29
2023/12/18 11:34:07;;;;;;;27.50;16.40;;;8.20;99.90;;;;;;5019459;27;88993;-32
2023/12/18 11:36:33;;;;;;;24.45;16.67;;;8.20;99.90;;;;;;5020979;27;89580;-30
2023/12/18 11:38:58;;;;;;;24.63;17.88;;;8.20;99.90;;;;;;5018162;28;89930;-29
2023/12/18 11:41:47;;;;;;;32.58;19.65;;;8.30;99.90;;;;;;5017657;27;92185;-28
2023/12/18 11:44:16;;;;;;;23.42;16.85;;;8.30;99.90;;;;;;5021551;27;90289;-29
2023/12/18 11:46:44;;;;;;;33.28;18.77;;;8.30;99.90;;;;;;5018912;28;90491;-29
2023/12/18 11:49:12;;;;;;;23.20;14.20;;;8.30;99.90;;;;;;5018676;28;89728;-29
2023/12/18 11:51:42;;;;;;;25.58;15.52;;;8.30;99.90;;;;;;5018617;27;90209;-29
2023/12/18 11:54:07;;;;;;;27.05;17.70;;;8.30;99.90;;;;;;5018377;28;89514;-30
2023/12/18 11:56:40;;;;;;;25.92;18.10;;;8.30;99.90;;;;;;5031312;27;90031;-29
2023/12/18 11:59:07;;;;;;;22.85;16.27;;;8.30;99.90;;;;;;5020885;27;88066;-29
2023/12/18 12:01:32;;;;;;;28.60;17.27;;;8.40;99.90;;;;;;5018741;27;91193;-32
2023/12/18 12:03:59;;;;;;;42.70;17.15;;;8.30;99.90;;;;;;5025741;27;90861;-33
2023/12/18 12:06:25;;;;;;;24.67;15.38;;;8.40;99.90;;;;;;5027074;27;90411;-31
2023/12/18 12:08:51;;;;;;;32.95;17.02;;;8.40;99.90;;;;;;5019072;28;90057;-31
2023/12/18 12:11:19;;;;;;;24.67;16.27;;;8.40;99.90;;;;;;5029353;27;90338;-30
2023/12/18 12:13:47;;;;;;;23.70;17.05;;;8.40;99.90;;;;;;5024302;27;89859;-28
2023/12/18 12:16:19;;;;;;;29.33;18.17;;;8.40;99.90;;;;;;5022419;27;89450;-29
2023/12/18 12:18:45;;;;;;;35.13;17.42;;;8.40;99.90;;;;;;5018716;28;89984;-29
2023/12/18 12:21:12;;;;;;;22.27;15.20;;;8.50;99.90;;;;;;5018557;28;90134;-29
2023/12/18 12:23:38;;;;;;;28.67;18.13;;;8.50;99.90;;;;;;5019790;27;91020;-29
2023/12/18 12:26:04;;;;;;;38.92;17.58;;;8.50;99.90;;;;;;5018956;27;89963;-30
2023/12/18 12:28:30;;;;;;;29.27;16.38;;;8.50;99.90;;;;;;5029296;27;89089;-29
2023/12/18 12:30:56;;;;;;;35.65;13.50;;;8.50;99.90;;;;;;5021649;27;90182;-32